Time;durP1;ratioP1;P1;durP2;ratioP2;P2;SDS_P1;SDS_P2;PMS_P1;PMS_P2;Temp;Humidity;BMP_temperature;BMP_pressure;BME280_temperature;BME280_humidity;BME280_pressure;Samples;Min_cycle;Max_cycle;Signal;HPM_P1;HPM_P2
2020/12/12 00:00:37;;;;;;;;;15.33;15.33;;;;;1.54;62.50;101473.06;4433673;32;8978;-74
2020/12/12 00:03:33;;;;;;;;;9.33;9.33;;;;;1.60;62.34;101469.31;4435617;32;8946;-73
2020/12/12 00:06:29;;;;;;;;;7.00;7.00;;;;;1.42;62.84;101463.34;4436354;32;8888;-74
2020/12/12 00:09:24;;;;;;;;;8.33;8.33;;;;;1.41;62.90;101456.25;4434573;32;9532;-73
2020/12/12 00:11:51;;;;;;;;;9.33;9.33;;;;;1.58;62.20;101449.66;4436129;32;8891;-74
2020/12/12 00:14:50;;;;;;;;;7.00;6.67;;;;;1.46;62.33;101451.69;4435794;32;8939;-74
2020/12/12 00:17:46;;;;;;;;;5.00;5.00;;;;;1.73;61.74;101448.22;4425322;32;9030;-74
2020/12/12 00:20:43;;;;;;;;;10.00;10.00;;;;;1.84;60.97;101450.84;4436127;32;8985;-74
2020/12/12 00:23:12;;;;;;;;;12.33;12.33;;;;;1.63;61.63;101455.19;4436959;32;8875;-73
2020/12/12 00:26:07;;;;;;;;;8.67;8.00;;;;;1.74;61.23;101456.16;4435392;32;9023;-73
2020/12/12 00:29:03;;;;;;;;;11.00;11.00;;;;;1.79;61.14;101467.13;4436449;32;8947;-74
2020/12/12 00:31:57;;;;;;;;;4.00;4.00;;;;;1.85;60.82;101451.66;4436502;32;8925;-73
2020/12/12 00:34:52;;;;;;;;;12.00;7.00;;;;;1.33;62.15;101438.44;4435274;32;9676;-73
2020/12/12 00:37:20;;;;;;;;;7.67;7.67;;;;;1.36;62.36;101438.72;4436304;32;8879;-74
2020/12/12 00:40:16;;;;;;;;;10.67;10.67;;;;;1.75;61.48;101444.16;4435435;32;8904;-74
2020/12/12 00:43:11;;;;;;;;;5.00;5.00;;;;;1.48;61.96;101444.09;4435350;32;8926;-74
2020/12/12 00:45:48;;;;;;;;;12.67;12.67;;;;;1.54;61.79;101445.00;4436570;32;8886;-74
2020/12/12 00:48:15;;;;;;;;;7.00;7.00;;;;;1.67;61.66;101439.12;4436899;32;8879;-74
2020/12/12 00:51:11;;;;;;;;;8.67;8.00;;;;;1.68;61.11;101449.78;4435496;32;8892;-74
2020/12/12 00:54:06;;;;;;;;;5.00;5.00;;;;;1.89;60.87;101450.87;4435331;32;8891;-73
2020/12/12 00:57:03;;;;;;;;;8.33;8.33;;;;;1.49;61.92;101444.91;4435794;32;8931;-73
2020/12/12 00:59:59;;;;;;;;;7.33;7.33;;;;;1.98;60.64;101437.59;4434483;32;8900;-73
2020/12/12 01:02:54;;;;;;;;;7.00;7.00;;;;;1.77;61.00;101439.28;4434965;32;9029;-74
2020/12/12 01:05:51;;;;;;;;;11.67;11.67;;;;;1.78;60.96;101435.47;4434979;32;8911;-74
2020/12/12 01:08:46;;;;;;;;;8.00;8.00;;;;;1.91;60.41;101436.97;4434946;32;8939;-74
2020/12/12 01:11:42;;;;;;;;;6.33;5.67;;;;;1.79;60.84;101430.84;4434972;32;8981;-74
2020/12/12 01:14:37;;;;;;;;;8.67;8.00;;;;;1.79;60.68;101431.66;4433482;32;9528;-74
2020/12/12 01:17:05;;;;;;;;;10.00;10.00;;;;;1.67;61.39;101439.97;4435662;32;8995;-74
2020/12/12 01:20:00;;;;;;;;;11.67;7.33;;;;;1.82;60.94;101431.16;4434455;32;8938;-74
2020/12/12 01:22:56;;;;;;;;;8.00;7.00;;;;;1.85;61.06;101421.66;4436389;32;8996;-73
2020/12/12 01:25:51;;;;;;;;;10.00;10.00;;;;;1.78;61.12;101431.94;4434658;32;8895;-74
2020/12/12 01:28:21;;;;;;;;;13.67;13.00;;;;;1.90;60.76;101432.59;4436000;32;8906;-73
2020/12/12 01:31:16;;;;;;;;;11.33;10.33;;;;;2.00;60.44;101426.47;4428034;32;8896;-73
2020/12/12 01:34:12;;;;;;;;;10.33;8.00;;;;;2.06;60.29;101420.78;4434387;32;8972;-74
2020/12/12 01:37:07;;;;;;;;;10.00;8.00;;;;;2.10;60.24;101421.09;4434548;32;8962;-73
2020/12/12 01:40:04;;;;;;;;;5.67;5.67;;;;;1.83;61.08;101421.06;4434416;32;8939;-74
2020/12/12 01:43:00;;;;;;;;;7.00;6.33;;;;;1.75;61.37;101422.34;4435261;32;9633;-74
2020/12/12 01:45:58;;;;;;;;;5.67;5.67;;;;;1.90;61.24;101408.88;4434445;32;9022;-74
2020/12/12 01:48:55;;;;;;;;;8.00;8.00;;;;;1.64;61.87;101398.75;4433443;32;8891;-75
2020/12/12 01:51:52;;;;;;;;;9.33;7.33;;;;;1.89;61.40;101396.31;4434413;32;8934;-75
2020/12/12 01:54:48;;;;;;;;;16.00;10.00;;;;;1.97;61.19;101394.22;4434354;32;8959;-75
2020/12/12 01:57:48;;;;;;;;;7.00;7.00;;;;;1.79;61.51;101395.38;4434455;32;8896;-75
2020/12/12 02:00:44;;;;;;;;;9.33;9.33;;;;;2.06;60.78;101393.50;4418322;32;9032;-74
2020/12/12 02:03:12;;;;;;;;;8.00;8.00;;;;;1.67;61.62;101404.50;4419531;32;8936;-75
2020/12/12 02:05:50;;;;;;;;;9.33;7.67;;;;;1.87;61.42;101400.41;4419642;32;8935;-75
2020/12/12 02:08:56;;;;;;;;;7.33;7.33;;;;;1.79;61.69;101395.38;4418523;32;8899;-73
2020/12/12 02:11:52;;;;;;;;;8.00;8.00;;;;;1.87;61.71;101397.66;4418777;32;8907;-74
2020/12/12 02:14:49;;;;;;;;;4.33;4.33;;;;;1.99;61.67;101401.06;4418659;32;8899;-74
2020/12/12 02:17:46;;;;;;;;;8.67;6.33;;;;;2.01;61.53;101388.00;4417178;32;8910;-74
2020/12/12 02:20:13;;;;;;;;;10.67;10.67;;;;;2.06;61.67;101393.50;4424299;32;8866;-74
2020/12/12 02:23:08;;;;;;;;;9.00;6.33;;;;;2.22;61.35;101383.56;4432695;32;9092;-74
2020/12/12 02:26:05;;;;;;;;;14.00;10.67;;;;;1.94;62.27;101388.19;4434288;32;8899;-75
2020/12/12 02:29:00;;;;;;;;;2.67;2.00;;;;;2.13;61.90;101385.09;4433736;32;9022;-74
2020/12/12 02:31:27;;;;;;;;;8.00;8.00;;;;;1.97;62.35;101375.94;4434226;32;8957;-74
2020/12/12 02:34:23;;;;;;;;;12.33;11.33;;;;;2.15;61.68;101385.69;4434315;32;8970;-74
2020/12/12 02:37:18;;;;;;;;;10.00;8.67;;;;;2.02;62.32;101386.91;4435177;32;8988;-75
2020/12/12 02:40:15;;;;;;;;;11.33;10.33;;;;;2.14;61.97;101373.09;4433840;32;8961;-75
2020/12/12 02:42:57;;;;;;;;;11.00;8.67;;;;;1.80;63.04;101369.75;4433966;32;9527;-75
2020/12/12 02:45:25;;;;;;;;;9.33;9.33;;;;;2.08;62.18;101369.53;4435566;32;8882;-74
2020/12/12 02:48:20;;;;;;;;;7.67;7.67;;;;;1.95;62.58;101361.75;4433910;32;8900;-75
2020/12/12 02:51:10;;;;;;;;;11.00;9.33;;;;;1.73;63.27;101355.50;4433876;32;8914;-74
2020/12/12 02:53:53;;;;;;;;;12.00;9.33;;;;;1.79;63.12;101359.94;4433884;32;8929;-74
2020/12/12 02:56:48;;;;;;;;;8.00;8.00;;;;;1.96;62.53;101360.66;4433282;32;8903;-74
2020/12/12 02:59:44;;;;;;;;;10.00;8.00;;;;;2.16;61.85;101369.06;4433615;32;8907;-74
2020/12/12 03:02:39;;;;;;;;;8.00;8.00;;;;;2.15;61.82;101359.22;4434188;32;8954;-74
2020/12/12 03:05:35;;;;;;;;;10.33;10.33;;;;;2.08;62.24;101360.53;4432021;32;8896;-74
2020/12/12 03:08:02;;;;;;;;;10.67;10.67;;;;;1.94;62.52;101358.19;4435514;32;8995;-74
2020/12/12 03:10:29;;;;;;;;;8.00;7.00;;;;;2.15;61.93;101364.69;4450283;32;9556;-74
2020/12/12 03:12:58;;;;;;;;;8.33;7.67;;;;;1.91;62.47;101368.78;4453218;32;8887;-75
2020/12/12 03:15:54;;;;;;;;;8.00;8.00;;;;;2.09;61.84;101367.62;4451912;32;12338;-75
2020/12/12 03:18:49;;;;;;;;;10.67;10.67;;;;;1.93;62.20;101355.72;4452444;32;8881;-75
2020/12/12 03:21:45;;;;;;;;;11.33;8.33;;;;;2.26;61.39;101367.50;4439494;32;8887;-75
2020/12/12 03:24:26;;;;;;;;;7.00;7.00;;;;;2.06;61.81;101346.28;4438002;32;8945;-74
2020/12/12 03:26:53;;;;;;;;;10.33;10.33;;;;;2.07;61.81;101361.56;4437835;32;9568;-74
2020/12/12 03:29:21;;;;;;;;;8.67;8.67;;;;;2.33;60.95;101365.37;4436910;32;8882;-74
2020/12/12 03:32:17;;;;;;;;;11.00;10.00;;;;;2.41;60.46;101364.91;4434972;32;8941;-74
2020/12/12 03:35:12;;;;;;;;;11.67;11.67;;;;;2.09;61.06;101371.16;4436790;32;8947;-74
2020/12/12 03:38:08;;;;;;;;;9.33;8.67;;;;;1.90;61.89;101357.03;4436654;32;8904;-74
2020/12/12 03:41:03;;;;;;;;;10.00;10.00;;;;;2.01;61.67;101373.53;4436318;32;8896;-74
2020/12/12 03:43:59;;;;;;;;;11.67;11.00;;;;;2.29;60.91;101369.69;4435200;32;8895;-74
2020/12/12 03:46:55;;;;;;;;;15.33;13.67;;;;;2.33;60.47;101377.13;4435999;32;8945;-74
2020/12/12 03:49:23;;;;;;;;;3.33;3.33;;;;;2.06;61.24;101376.31;4437595;32;8886;-74
2020/12/12 03:52:18;;;;;;;;;13.00;13.00;;;;;2.19;60.87;101378.63;4420792;32;9554;-74
2020/12/12 03:55:14;;;;;;;;;10.00;8.00;;;;;2.20;60.74;101385.72;4420367;32;8890;-74
2020/12/12 03:58:10;;;;;;;;;8.00;7.33;;;;;2.37;60.22;101380.16;4421290;32;8899;-74
2020/12/12 04:01:05;;;;;;;;;11.00;10.00;;;;;2.45;59.70;101385.13;4421078;32;8945;-74
2020/12/12 04:03:43;;;;;;;;;8.67;8.67;;;;;2.39;59.82;101375.28;4421109;32;8970;-74
2020/12/12 04:06:38;;;;;;;;;11.00;10.00;;;;;2.01;60.94;101377.09;4420652;32;9046;-75
2020/12/12 04:09:35;;;;;;;;;11.00;11.00;;;;;2.02;61.18;101367.81;4422379;32;9073;-74
2020/12/12 04:12:25;;;;;;;;;10.33;9.33;;;;;2.02;61.16;101365.09;4435948;32;8867;-74
2020/12/12 04:15:01;;;;;;;;;10.00;10.00;;;;;1.99;61.04;101365.59;4436534;32;8906;-74
2020/12/12 04:17:29;;;;;;;;;10.00;10.00;;;;;2.09;61.13;101362.16;4437500;32;8882;-73
2020/12/12 04:20:26;;;;;;;;;12.33;11.00;;;;;1.99;61.35;101359.31;4426007;32;8940;-73
2020/12/12 04:23:22;;;;;;;;;10.33;10.33;;;;;2.09;61.10;101357.53;4435710;32;8965;-73
2020/12/12 04:25:49;;;;;;;;;10.00;8.67;;;;;2.06;61.32;101355.28;4435966;32;8899;-73
2020/12/12 04:28:46;;;;;;;;;10.00;10.00;;;;;1.96;61.43;101349.75;4435992;32;8891;-74
2020/12/12 04:31:31;;;;;;;;;8.00;8.00;;;;;2.20;60.96;101361.97;4436178;32;8895;-74
2020/12/12 04:34:26;;;;;;;;;8.00;8.00;;;;;1.88;62.02;101348.31;4435836;32;12350;-74
2020/12/12 04:37:02;;;;;;;;;11.00;11.00;;;;;1.94;61.86;101344.56;4435870;32;8874;-72
2020/12/12 04:39:30;;;;;;;;;11.33;8.67;;;;;1.99;61.81;101335.56;4422545;32;8937;-74
2020/12/12 04:42:15;;;;;;;;;13.67;10.67;;;;;1.93;62.36;101340.19;4436332;32;8929;-74
2020/12/12 04:45:11;;;;;;;;;10.33;8.67;;;;;1.71;63.36;101327.66;4434664;32;8911;-73
2020/12/12 04:48:07;;;;;;;;;17.67;17.67;;;;;2.01;62.59;101344.34;4434441;32;8888;-74
2020/12/12 04:50:35;;;;;;;;;10.33;10.33;;;;;1.74;63.07;101336.16;4435813;32;8963;-74
2020/12/12 04:53:17;;;;;;;;;14.33;14.33;;;;;1.57;64.34;101329.97;4435756;32;9531;-74
2020/12/12 04:56:22;;;;;;;;;10.00;10.00;;;;;1.93;63.73;101334.72;4434909;32;9084;-74
2020/12/12 04:59:19;;;;;;;;;15.33;15.33;;;;;1.48;66.05;101326.03;4435365;32;8892;-73
2020/12/12 05:02:14;;;;;;;;;14.00;14.00;;;;;1.64;66.15;101325.97;4435530;32;8900;-74
2020/12/12 05:04:42;;;;;;;;;11.67;10.00;;;;;1.84;66.26;101325.37;4435289;32;8933;-74
2020/12/12 05:07:38;;;;;;;;;17.00;17.00;;;;;1.81;66.85;101319.59;4433993;32;8987;-73
2020/12/12 05:10:57;;;;;;;;;13.33;13.33;;;;;1.60;67.79;101316.62;4435122;32;9568;-74
2020/12/12 05:13:54;;;;;;;;;11.00;11.00;;;;;1.61;68.28;101325.63;4435031;32;8912;-74
2020/12/12 05:16:22;;;;;;;;;9.67;8.00;;;;;1.56;69.20;101320.12;4435478;32;8948;-74
2020/12/12 05:19:18;;;;;;;;;14.33;12.33;;;;;1.35;70.57;101314.44;4434391;32;8872;-74
2020/12/12 05:22:02;;;;;;;;;10.00;10.00;;;;;1.54;70.72;101311.41;4436018;32;8940;-74
2020/12/12 05:24:30;;;;;;;;;15.33;11.00;;;;;1.32;70.82;101312.22;4435333;32;8890;-75
2020/12/12 05:27:26;;;;;;;;;11.67;11.67;;;;;1.52;71.42;101308.09;4434929;32;8980;-75
2020/12/12 05:30:22;;;;;;;;;16.67;15.00;;;;;1.60;71.06;101310.34;4434404;32;8892;-74
2020/12/12 05:33:20;;;;;;;;;16.00;16.00;;;;;1.38;72.27;101313.09;4434730;32;8976;-75
2020/12/12 05:36:12;;;;;;;;;9.00;9.00;;;;;1.49;71.87;101314.87;4434932;32;9031;-75
2020/12/12 05:38:39;;;;;;;;;21.00;20.33;;;;;1.33;72.29;101321.22;4435129;32;8917;-74
2020/12/12 05:41:35;;;;;;;;;13.33;13.00;;;;;1.57;72.47;101316.34;4434457;32;8899;-73
2020/12/12 05:44:30;;;;;;;;;11.00;10.00;;;;;1.30;72.87;101299.91;4434087;32;8957;-74
2020/12/12 05:47:21;;;;;;;;;10.00;10.00;;;;;1.23;73.11;101300.12;4434180;32;8895;-75
2020/12/12 05:50:17;;;;;;;;;19.00;11.00;;;;;1.61;72.21;101296.50;4433847;32;8942;-75
2020/12/12 05:53:15;;;;;;;;;10.00;10.00;;;;;1.34;73.39;101291.00;4434195;32;8935;-74
2020/12/12 05:56:11;;;;;;;;;17.33;16.00;;;;;1.48;73.54;101293.34;4445652;32;8962;-73
2020/12/12 05:58:40;;;;;;;;;14.67;14.67;;;;;1.51;73.52;101299.09;4450585;32;8879;-74
2020/12/12 06:01:41;;;;;;;;;10.33;9.67;;;;;1.46;73.82;101290.00;4447462;32;8912;-74
2020/12/12 06:04:52;;;;;;;;;17.00;14.00;;;;;1.38;74.33;101283.12;4450266;32;8946;-74
2020/12/12 06:07:42;;;;;;;;;13.67;12.33;;;;;1.30;74.68;101287.16;4450148;32;8950;-76
2020/12/12 06:10:13;;;;;;;;;13.33;13.33;;;;;1.59;74.40;101292.34;4450974;32;8913;-75
2020/12/12 06:12:42;;;;;;;;;17.00;17.00;;;;;1.52;74.68;101289.00;4450224;32;8926;-74
2020/12/12 06:15:40;;;;;;;;;19.67;19.67;;;;;1.46;74.78;101290.00;4448738;32;8939;-74
2020/12/12 06:18:50;;;;;;;;;14.00;14.00;;;;;1.72;74.06;101285.69;4448738;32;8908;-75
2020/12/12 06:21:29;;;;;;;;;14.00;14.00;;;;;1.58;74.86;101287.97;4427653;32;8874;-76
2020/12/12 06:24:25;;;;;;;;;15.33;15.33;;;;;1.64;74.59;101295.13;4430408;32;8879;-74
2020/12/12 06:27:21;;;;;;;;;13.33;12.33;;;;;1.67;74.72;101287.25;4430984;32;8923;-73
2020/12/12 06:30:19;;;;;;;;;11.00;11.00;;;;;1.93;74.20;101291.06;4430161;32;8926;-74
2020/12/12 06:33:14;;;;;;;;;11.00;11.00;;;;;1.88;74.24;101293.75;4429558;32;8878;-73
2020/12/12 06:36:32;;;;;;;;;11.00;11.00;;;;;2.08;73.19;101293.12;4417033;32;9009;-73
2020/12/12 06:39:19;;;;;;;;;8.00;8.00;;;;;2.12;73.99;101299.69;4416963;32;8898;-74
2020/12/12 06:42:05;;;;;;;;;16.00;16.00;;;;;2.22;73.49;101294.34;4419785;32;8881;-74
2020/12/12 06:45:21;;;;;;;;;10.33;10.33;;;;;2.34;73.26;101291.41;4419827;32;8878;-75
2020/12/12 06:48:23;;;;;;;;;10.00;10.00;;;;;2.42;73.07;101293.66;4419712;32;8943;-74
2020/12/12 06:50:52;;;;;;;;;12.33;12.33;;;;;2.33;73.68;101292.50;4428058;32;8925;-74
2020/12/12 06:53:22;;;;;;;;;17.33;17.33;;;;;2.49;73.77;101288.78;4438071;32;8871;-73
2020/12/12 06:56:17;;;;;;;;;10.00;10.00;;;;;2.55;74.00;101275.19;3952366;32;15146492;-71
2020/12/12 06:59:34;;;;;;;;;16.67;15.33;;;;;2.19;75.99;101286.66;4413897;32;12377;-76
2020/12/12 07:02:30;;;;;;;;;16.00;16.00;;;;;2.20;76.36;101290.19;4413921;32;8888;-76
2020/12/12 07:05:29;;;;;;;;;14.67;14.67;;;;;2.15;77.76;101288.28;4405065;32;8959;-77
2020/12/12 07:08:26;;;;;;;;;7.67;7.67;;;;;2.19;77.86;101278.47;4413971;32;8936;-75
2020/12/12 07:11:26;;;;;;;;;11.67;11.67;;;;;2.27;77.58;101276.34;4414287;32;8869;-75
2020/12/12 07:14:23;;;;;;;;;16.00;15.33;;;;;2.30;77.42;101278.53;4414802;32;9003;-75
2020/12/12 07:17:19;;;;;;;;;16.33;16.33;;;;;2.68;76.57;101282.91;4403308;32;8904;-75
2020/12/12 07:20:15;;;;;;;;;17.00;17.00;;;;;2.78;76.31;101274.78;4402899;32;8940;-75
2020/12/12 07:23:11;;;;;;;;;17.33;17.33;;;;;2.93;75.84;101274.88;4413457;32;8909;-75
2020/12/12 07:26:07;;;;;;;;;20.00;19.33;;;;;2.86;76.21;101277.00;4403771;32;8877;-75
2020/12/12 07:29:03;;;;;;;;;19.33;17.67;;;;;2.90;75.89;101271.81;4412450;32;8910;-74
2020/12/12 07:31:30;;;;;;;;;20.00;20.00;;;;;2.74;76.62;101285.41;4400702;32;9000;-75
2020/12/12 07:34:27;;;;;;;;;27.67;27.67;;;;;2.85;76.87;101280.00;4413161;32;8918;-76
2020/12/12 07:37:23;;;;;;;;;19.33;19.33;;;;;3.02;76.18;101281.47;4419894;32;8974;-76
2020/12/12 07:39:59;;;;;;;;;26.00;25.00;;;;;2.95;76.52;101271.88;4416420;32;8981;-74
2020/12/12 07:42:55;;;;;;;;;26.33;23.67;;;;;2.96;76.33;101285.25;4417638;32;8927;-74
2020/12/12 07:46:04;;;;;;;;;18.00;18.00;;;;;3.09;75.87;101281.22;4429604;32;8921;-74
2020/12/12 07:48:32;;;;;;;;;17.00;17.00;;;;;3.21;75.29;101284.53;4423086;32;8920;-75
2020/12/12 07:51:28;;;;;;;;;17.00;16.33;;;;;3.23;74.84;101287.03;4427670;32;8890;-76
2020/12/12 07:54:31;;;;;;;;;18.00;18.00;;;;;3.23;74.94;101276.91;4413425;32;8900;-75
2020/12/12 07:57:28;;;;;;;;;18.67;18.67;;;;;2.85;76.24;101272.66;4420352;32;8863;-75
2020/12/12 08:00:23;;;;;;;;;16.67;16.67;;;;;2.78;76.41;101277.50;4448016;32;9069;-75
2020/12/12 08:03:20;;;;;;;;;18.00;17.00;;;;;2.81;76.56;101266.03;4430444;32;8887;-75
2020/12/12 08:05:48;;;;;;;;;24.00;24.00;;;;;3.11;75.71;101268.09;4432769;32;8890;-75
2020/12/12 08:08:53;;;;;;;;;28.33;26.67;;;;;2.88;76.39;101258.44;4433342;32;9618;-75
2020/12/12 08:12:00;;;;;;;;;38.33;38.33;;;;;2.63;77.47;101244.66;4432167;32;8890;-75
2020/12/12 08:15:09;;;;;;;;;38.67;30.67;;;;;2.86;77.17;101237.94;4430434;32;8944;-76
2020/12/12 08:17:52;;;;;;;;;23.33;23.33;;;;;2.75;77.76;101234.31;4420559;32;8924;-76
2020/12/12 08:20:47;;;;;;;;;42.00;40.33;;;;;2.82;77.23;101237.63;4415781;32;8865;-76
2020/12/12 08:23:24;;;;;;;;;23.00;20.67;;;;;2.84;77.61;101240.94;4420831;32;8906;-75
2020/12/12 08:26:17;;;;;;;;;19.33;18.67;;;;;3.13;76.72;101233.13;4432673;32;8909;-76
2020/12/12 08:28:45;;;;;;;;;22.33;22.33;;;;;2.84;77.63;101231.91;4431647;32;8882;-76
2020/12/12 08:31:41;;;;;;;;;46.67;43.33;;;;;2.85;77.77;101220.72;4421273;32;8985;-76
2020/12/12 08:34:19;;;;;;;;;65.67;51.67;;;;;2.95;77.43;101219.94;4433271;32;8904;-76
2020/12/12 08:36:50;;;;;;;;;36.67;35.67;;;;;3.01;77.21;101219.72;4432880;32;8877;-76
2020/12/12 08:39:40;;;;;;;;;29.00;27.00;;;;;2.90;78.08;101212.53;4433172;32;8877;-75
2020/12/12 08:42:36;;;;;;;;;44.00;41.33;;;;;3.17;77.27;101211.56;4432624;32;8863;-75
2020/12/12 08:45:53;;;;;;;;;44.67;43.67;;;;;3.25;76.96;101216.50;4432020;32;8940;-75
2020/12/12 08:48:38;;;;;;;;;50.33;45.33;;;;;3.33;76.73;101221.44;4433820;32;8886;-76
2020/12/12 08:51:34;;;;;;;;;41.33;32.33;;;;;3.19;77.58;101214.84;4433904;32;8907;-77
2020/12/12 08:54:30;;;;;;;;;29.33;29.33;;;;;3.04;78.06;101204.66;4430165;32;8874;-75
2020/12/12 08:57:26;;;;;;;;;69.33;57.00;;;;;2.83;79.06;101201.03;4431344;32;8879;-75
2020/12/12 09:00:26;;;;;;;;;43.33;38.67;;;;;3.17;78.25;101197.91;4421126;32;8890;-75
2020/12/12 09:03:21;;;;;;;;;36.67;32.67;;;;;3.00;78.59;101193.47;4431345;32;9570;-75
2020/12/12 09:05:48;;;;;;;;;49.33;45.33;;;;;2.91;79.26;101173.19;4433666;32;8925;-75
2020/12/12 09:08:16;;;;;;;;;30.67;30.67;;;;;2.84;79.94;101172.66;4418309;32;8931;-75
2020/12/12 09:10:45;;;;;;;;;40.33;38.00;;;;;2.95;79.65;101174.31;4418697;32;8877;-76
2020/12/12 09:13:41;;;;;;;;;41.33;39.00;;;;;3.17;79.33;101171.38;4411487;32;8871;-75
2020/12/12 09:16:38;;;;;;;;;40.67;40.33;;;;;3.33;78.60;101174.97;4429689;32;9678;-75
2020/12/12 09:19:38;;;;;;;;;50.67;45.67;;;;;2.98;79.53;101172.94;4431914;32;8944;-77
2020/12/12 09:22:34;;;;;;;;;25.33;23.00;;;;;3.29;78.67;101165.66;4430345;32;9013;-77
2020/12/12 09:25:30;;;;;;;;;29.67;29.67;;;;;3.03;79.16;101168.34;4430852;32;8945;-77
2020/12/12 09:28:11;;;;;;;;;28.33;26.33;;;;;3.38;78.81;101174.16;4430637;32;8890;-77
2020/12/12 09:31:07;;;;;;;;;28.67;27.67;;;;;3.25;79.19;101178.22;4430321;32;12443;-78
2020/12/12 09:34:03;;;;;;;;;31.33;31.33;;;;;3.28;79.04;101170.28;4429944;32;12331;-76
2020/12/12 09:36:30;;;;;;;;;29.00;27.25;;;;;3.53;78.24;101164.06;4431577;32;12374;-76
2020/12/12 09:39:21;;;;;;;;;9.00;8.00;;;;;3.54;78.42;101167.62;4432189;32;12450;-76
2020/12/12 09:41:58;;;;;;;;;31.67;30.00;;;;;3.15;79.45;101159.09;4432465;32;9029;-76
2020/12/12 09:44:40;;;;;;;;;18.50;17.50;;;;;3.05;80.49;101152.47;4431534;32;12293;-75
2020/12/12 09:47:10;;;;;;;;;22.00;22.00;;;;;2.89;80.95;101156.25;4431762;32;12501;-76
2020/12/12 09:49:51;;;;;;;;;28.00;26.33;;;;;3.15;80.68;101159.91;4430917;32;12302;-77
2020/12/12 09:52:47;;;;;;;;;30.33;29.67;;;;;3.48;79.43;101174.16;4420821;32;12549;-78
2020/12/12 09:55:43;;;;;;;;;41.33;32.33;;;;;3.65;78.68;101177.47;4420145;32;8984;-76
2020/12/12 09:58:43;;;;;;;;;22.00;22.00;;;;;3.51;79.03;101163.50;4430102;32;8866;-78
2020/12/12 10:01:13;;;;;;;;;26.50;25.50;;;;;3.75;78.54;101179.37;4430538;32;12301;-77
2020/12/12 10:04:08;;;;;;;;;37.33;31.67;;;;;3.75;77.99;101187.56;4419947;32;12443;-76
2020/12/12 10:06:50;;;;;;;;;31.67;31.67;;;;;3.79;78.06;101175.81;4431728;32;9018;-77
2020/12/12 10:09:31;;;;;;;;;29.00;28.33;;;;;3.76;78.58;101175.56;4431236;32;12411;-77
2020/12/12 10:12:27;;;;;;;;;30.33;25.33;;;;;3.78;78.38;101178.84;4431106;32;12365;-78
2020/12/12 10:15:23;;;;;;;;;24.00;22.25;;;;;3.83;78.17;101176.94;4429698;32;12378;-78
2020/12/12 10:17:58;;;;;;;;;30.33;29.00;;;;;3.98;77.89;101176.06;4432013;32;12436;-78
2020/12/12 10:20:54;;;;;;;;;23.50;23.50;;;;;4.07;77.24;101174.44;4429547;32;12294;-78
2020/12/12 10:23:21;;;;;;;;;37.25;33.00;;;;;3.99;77.79;101171.41;4429090;32;12287;-77
2020/12/12 10:26:16;;;;;;;;;24.50;24.50;;;;;4.04;77.83;101180.47;4429957;32;12376;-77
2020/12/12 10:28:43;;;;;;;;;26.50;25.00;;;;;3.58;79.29;101175.00;4431274;32;12424;-78
2020/12/12 10:31:39;;;;;;;;;35.67;33.33;;;;;3.89;78.55;101191.41;4428950;32;12355;-77
2020/12/12 10:34:34;;;;;;;;;43.33;39.67;;;;;4.07;77.87;101185.41;4428226;32;12310;-77
2020/12/12 10:37:17;;;;;;;;;37.67;37.67;;;;;4.18;77.59;101192.50;4429962;32;8940;-77
2020/12/12 10:40:20;;;;;;;;;38.67;36.00;;;;;4.23;77.35;101185.38;4429476;32;8940;-77
2020/12/12 10:42:47;;;;;;;;;40.33;40.00;;;;;4.04;78.10;101188.66;4418624;32;8893;-77
2020/12/12 10:45:43;;;;;;;;;38.75;32.00;;;;;3.96;78.22;101175.53;4419608;32;12339;-78
2020/12/12 10:48:11;;;;;;;;;28.00;22.67;;;;;4.07;78.25;101187.31;4418046;32;12360;-78
2020/12/12 10:50:38;;;;;;;;;37.00;31.75;;;;;4.28;77.75;101186.16;4430148;32;12411;-77
2020/12/12 10:53:14;;;;;;;;;29.00;28.00;;;;;4.21;77.49;101182.91;4415311;32;12459;-77
2020/12/12 10:56:09;;;;;;;;;31.33;30.00;;;;;4.30;77.22;101194.13;4426537;32;12317;-76
2020/12/12 10:59:06;;;;;;;;;51.00;43.67;;;;;4.39;76.90;101201.50;4428031;32;12316;-77
2020/12/12 11:02:02;;;;;;;;;50.67;46.00;;;;;4.52;76.60;101193.78;4429780;32;8930;-78
2020/12/12 11:04:32;;;;;;;;;50.67;45.33;;;;;4.43;76.96;101196.28;4417898;32;8890;-78
2020/12/12 11:07:26;;;;;;;;;45.00;42.00;;;;;4.38;76.85;101188.09;4430637;32;12464;-76
2020/12/12 11:09:55;;;;;;;;;25.75;25.75;;;;;4.47;76.83;101197.38;4417280;32;12316;-78
2020/12/12 11:12:30;;;;;;;;;37.00;36.25;;;;;4.56;76.49;101203.09;4431624;32;12393;-78
2020/12/12 11:15:27;;;;;;;;;38.25;34.50;;;;;4.45;76.65;101203.13;4429409;32;12284;-78
2020/12/12 11:18:23;;;;;;;;;46.00;43.67;;;;;4.50;76.59;101199.53;4428103;32;12371;-78
2020/12/12 11:20:52;;;;;;;;;63.33;51.00;;;;;4.56;76.78;101217.63;4431991;32;12460;-78
2020/12/12 11:23:48;;;;;;;;;47.33;38.00;;;;;4.59;76.70;101214.31;4419759;32;8875;-78
2020/12/12 11:26:45;;;;;;;;;42.67;40.33;;;;;4.56;76.69;101216.81;4428720;32;12403;-78
2020/12/12 11:29:15;;;;;;;;;45.67;44.00;;;;;4.63;76.39;101209.13;4430529;32;8955;-78
2020/12/12 11:31:49;;;;;;;;;44.67;42.67;;;;;4.57;76.91;101207.47;4431184;32;12289;-78
2020/12/12 11:34:41;;;;;;;;;45.33;43.67;;;;;4.52;76.83;101199.25;4420392;32;8931;-78
2020/12/12 11:38:32;;;;;;;;;38.50;35.75;;;;;4.62;76.65;101211.03;4432370;32;12330;-79
2020/12/12 11:41:02;;;;;;;;;35.25;35.25;;;;;4.68;76.39;101209.09;4424220;32;12360;-77
2020/12/12 11:46:56;;;;;;;;;39.25;39.00;;;;;4.50;77.39;101202.28;4432000;32;12332;-78
2020/12/12 11:49:53;;;;;;;;;37.00;32.50;;;;;4.49;77.85;101199.84;4431888;32;12397;-77
2020/12/12 11:52:53;;;;;;;;;41.00;40.00;;;;;4.22;78.96;101205.63;4422486;32;12307;-78
2020/12/12 11:55:35;;;;;;;;;42.75;38.25;;;;;4.56;78.05;101206.66;4432337;32;12316;-78
2020/12/12 11:58:04;;;;;;;;;39.00;38.00;;;;;4.65;77.58;101210.47;4406615;32;12382;-77
2020/12/12 12:00:32;;;;;;;;;35.00;33.75;;;;;4.60;77.50;101212.38;4434339;32;12303;-77
2020/12/12 12:02:59;;;;;;;;;46.00;40.67;;;;;4.54;77.93;101206.13;4434163;32;12354;-78
2020/12/12 12:05:56;;;;;;;;;33.75;33.00;;;;;4.67;77.72;101211.00;4431443;32;12345;-78
2020/12/12 12:11:38;;;;;;;;;44.33;42.00;;;;;4.76;77.63;101213.19;4418386;32;12432;-73
2020/12/12 12:14:33;;;;;;;;;40.50;40.00;;;;;4.65;77.89;101221.44;4431027;32;12331;-72
2020/12/12 12:17:01;;;;;;;;;48.33;45.33;;;;;4.89;77.66;101218.06;4433620;32;12428;-72
2020/12/12 12:19:59;;;;;;;;;47.67;44.00;;;;;4.87;77.82;101231.22;4431007;32;12329;-72
2020/12/12 12:22:54;;;;;;;;;49.00;45.00;;;;;4.90;77.79;101227.91;4429973;32;8886;-73
2020/12/12 12:25:23;;;;;;;;;46.67;44.00;;;;;4.96;77.42;101226.81;4433836;32;8869;-72
2020/12/12 12:27:54;;;;;;;;;44.00;41.00;;;;;5.07;76.96;101227.59;4419007;32;12274;-72
2020/12/12 12:30:49;;;;;;;;;52.33;44.33;;;;;5.15;76.69;101222.34;4430950;32;12353;-72
2020/12/12 12:33:39;;;;;;;;;47.75;42.50;;;;;5.12;76.67;101233.03;4420414;32;12323;-72
2020/12/12 12:36:09;;;;;;;;;47.50;41.00;;;;;5.10;77.17;101238.81;4432713;32;12369;-73
2020/12/12 12:39:07;;;;;;;;;43.75;41.75;;;;;5.07;77.10;101236.66;4431210;32;12375;-72
2020/12/12 12:41:38;;;;;;;;;57.25;45.75;;;;;5.11;77.39;101237.72;4431819;32;12448;-72
2020/12/12 12:44:05;;;;;;;;;48.00;43.25;;;;;5.02;77.97;101242.97;4403569;32;12309;-73
2020/12/12 12:47:01;;;;;;;;;43.25;40.25;;;;;5.24;77.18;101237.09;4420034;32;12343;-74
2020/12/12 12:49:32;;;;;;;;;49.50;45.00;;;;;5.04;77.47;101242.66;4405648;32;12349;-73
2020/12/12 12:51:59;;;;;;;;;46.33;43.33;;;;;5.11;77.60;101250.59;4432639;32;12346;-73
2020/12/12 12:54:55;;;;;;;;;56.00;46.50;;;;;5.19;76.88;101253.56;4429790;32;12328;-72
2020/12/12 12:57:52;;;;;;;;;57.33;48.67;;;;;5.20;77.42;101257.94;4429680;32;12434;-73
2020/12/12 13:00:31;;;;;;;;;53.25;45.00;;;;;5.22;77.08;101258.50;4430555;32;8870;-72
2020/12/12 13:02:59;;;;;;;;;61.33;52.67;;;;;5.23;77.40;101265.62;4418326;32;12370;-72
2020/12/12 13:05:55;;;;;;;;;46.00;41.50;;;;;5.19;77.54;101258.25;4431074;32;8949;-73
2020/12/12 13:08:51;;;;;;;;;65.67;52.33;;;;;5.28;77.34;101248.31;4419030;32;12296;-72
2020/12/12 13:11:47;;;;;;;;;57.67;49.00;;;;;5.37;77.32;101254.03;4430197;32;8965;-72